createdAt,value
2022-08-27T00:03:44.424Z,21.39
2022-08-27T00:08:49.752Z,21.46
2022-08-27T00:14:10.904Z,21.15
2022-08-27T00:19:31.855Z,20.94
2022-08-27T00:24:52.303Z,20.82
2022-08-27T00:29:54.707Z,20.71
2022-08-27T00:34:58.317Z,20.60
2022-08-27T00:40:01.754Z,20.55
2022-08-27T00:45:07.126Z,20.34
2022-08-27T00:50:37.952Z,20.26
2022-08-27T00:56:16.207Z,20.33
2022-08-27T01:01:39.082Z,20.24
2022-08-27T01:06:41.359Z,20.46
2022-08-27T01:11:44.140Z,20.21
2022-08-27T01:17:07.820Z,20.39
2022-08-27T01:22:30.179Z,20.38
2022-08-27T01:27:53.151Z,20.84
2022-08-27T01:33:20.462Z,21.03
2022-08-27T01:38:30.788Z,21.13
2022-08-27T01:43:34.902Z,21.19
2022-08-27T01:48:37.129Z,21.16
2022-08-27T01:53:39.730Z,21.11
2022-08-27T01:59:00.490Z,21.17
2022-08-27T02:04:02.809Z,21.27
2022-08-27T02:09:04.990Z,21.37
2022-08-27T02:14:12.859Z,21.11
2022-08-27T02:19:16.219Z,21.31
2022-08-27T02:24:18.891Z,21.34
2022-08-27T02:29:39.689Z,21.36
2022-08-27T02:34:41.970Z,21.32
2022-08-27T02:39:46.159Z,21.35
2022-08-27T02:44:48.871Z,21.27
2022-08-27T02:49:51.270Z,21.29
2022-08-27T02:55:12.830Z,21.29
2022-08-27T03:00:19.756Z,21.30
2022-08-27T03:05:22.325Z,21.30
2022-08-27T03:10:24.571Z,21.49
2022-08-27T03:15:45.956Z,21.47
2022-08-27T03:20:51.651Z,21.64
2022-08-27T03:26:14.592Z,21.60
2022-08-27T03:31:21.571Z,21.46
2022-08-27T03:36:42.699Z,21.38
2022-08-27T03:42:07.819Z,21.26
2022-08-27T03:47:09.974Z,21.26
2022-08-27T03:52:12.370Z,20.86
2022-08-27T03:57:15.250Z,20.89
2022-08-27T04:02:36.081Z,21.04
2022-08-27T04:07:40.450Z,21.06
2022-08-27T04:12:42.654Z,21.00
2022-08-27T04:17:44.851Z,21.16
2022-08-27T04:22:46.970Z,21.14
2022-08-27T04:28:08.418Z,21.15
2022-08-27T04:33:14.631Z,21.20
2022-08-27T04:38:17.574Z,21.24
2022-08-27T04:43:20.342Z,21.24
2022-08-27T04:48:22.630Z,21.21
2022-08-27T04:53:43.697Z,21.28
2022-08-27T04:59:06.950Z,21.12
2022-08-27T05:04:27.518Z,20.96
2022-08-27T05:09:48.171Z,20.96
2022-08-27T05:14:50.431Z,21.11
2022-08-27T05:19:52.661Z,21.10
2022-08-27T05:25:13.190Z,21.23
2022-08-27T05:30:15.531Z,21.21
2022-08-27T05:35:48.169Z,21.29
2022-08-27T05:40:50.297Z,21.23
2022-08-27T05:45:52.872Z,21.38
2022-08-27T05:51:26.138Z,21.23
2022-08-27T05:56:50.263Z,21.43
2022-08-27T06:01:55.331Z,21.48
2022-08-27T06:06:58.004Z,21.61
2022-08-27T06:12:01.050Z,21.54
2022-08-27T06:17:04.632Z,21.62
2022-08-27T06:22:25.332Z,21.69
2022-08-27T06:27:46.011Z,21.61
2022-08-27T06:33:06.973Z,21.71
2022-08-27T06:38:28.290Z,21.62
2022-08-27T06:43:49.174Z,22.06
2022-08-27T06:48:53.995Z,22.04
2022-08-27T06:53:58.492Z,21.90
2022-08-27T06:59:03.259Z,21.94
2022-08-27T07:04:11.811Z,22.12
2022-08-27T07:09:14.854Z,22.25
2022-08-27T07:14:17.235Z,22.62
2022-08-27T07:19:19.485Z,22.38
2022-08-27T07:24:23.841Z,22.18
2022-08-27T07:29:29.266Z,22.34
2022-08-27T07:34:53.095Z,22.56
2022-08-27T07:39:55.360Z,22.66
2022-08-27T07:44:57.694Z,22.36
2022-08-27T07:50:19.034Z,22.54
2022-08-27T07:55:39.932Z,22.55
2022-08-27T08:00:45.752Z,22.63
2022-08-27T08:06:11.131Z,22.66
2022-08-27T08:11:16.860Z,22.50
2022-08-27T08:16:19.109Z,22.79
2022-08-27T08:21:40.011Z,23.21
2022-08-27T08:27:05.050Z,23.28
2022-08-27T08:32:09.320Z,23.67
2022-08-27T08:37:11.940Z,23.66
2022-08-27T08:42:54.538Z,23.71
2022-08-27T08:48:22.811Z,23.68
2022-08-27T08:53:49.751Z,23.70
2022-08-27T08:59:35.567Z,23.46
2022-08-27T09:04:38.160Z,23.49
2022-08-27T09:10:26.652Z,23.43
2022-08-27T09:15:33.273Z,23.50
2022-08-27T09:21:29.591Z,23.32
2022-08-27T09:26:34.951Z,23.56
2022-08-27T09:31:39.760Z,23.25
2022-08-27T09:37:15.829Z,24.14
2022-08-27T09:42:32.700Z,24.67
2022-08-27T09:48:08.147Z,24.51
2022-08-27T09:53:23.919Z,24.59
2022-08-27T09:58:31.958Z,24.72
2022-08-27T10:03:34.637Z,24.63
2022-08-27T10:08:49.060Z,24.06
2022-08-27T10:14:00.156Z,25.02
2022-08-27T10:19:19.450Z,24.93
2022-08-27T10:24:54.205Z,24.85
2022-08-27T10:30:19.750Z,25.43
2022-08-27T10:35:27.093Z,25.65
2022-08-27T10:40:49.110Z,27.17
2022-08-27T10:46:27.113Z,26.93
2022-08-27T10:52:21.773Z,28.98
2022-08-27T10:57:58.905Z,28.86
2022-08-27T11:03:14.071Z,29.16
2022-08-27T11:08:29.291Z,28.89
2022-08-27T11:13:53.371Z,28.99
2022-08-27T11:19:33.574Z,29.23
2022-08-27T11:25:04.081Z,29.97
2022-08-27T11:30:20.870Z,30.17
2022-08-27T11:35:52.019Z,30.77
2022-08-27T11:41:10.569Z,31.33
2022-08-27T11:46:25.283Z,31.60
2022-08-27T11:51:37.363Z,31.16
2022-08-27T11:56:58.709Z,31.63
2022-08-27T12:02:26.458Z,30.24
2022-08-27T12:07:35.564Z,27.85
2022-08-27T12:12:56.450Z,28.04
2022-08-27T12:18:59.399Z,27.12
2022-08-27T12:24:17.570Z,28.76
2022-08-27T12:29:48.632Z,28.60
2022-08-27T12:35:08.301Z,28.41
2022-08-27T12:40:38.758Z,29.28
2022-08-27T12:45:49.712Z,29.34
2022-08-27T12:50:55.383Z,28.39
2022-08-27T12:56:22.491Z,29.21
2022-08-27T13:01:35.516Z,27.41
2022-08-27T13:06:45.692Z,29.51
2022-08-27T13:12:20.630Z,29.48
2022-08-27T13:17:45.801Z,27.46
2022-08-27T13:23:17.234Z,27.95
2022-08-27T13:28:26.392Z,28.48
2022-08-27T13:33:34.492Z,28.85
2022-08-27T13:38:49.270Z,29.69
2022-08-27T13:44:20.238Z,29.76
2022-08-27T13:49:25.914Z,28.67
2022-08-27T13:54:49.113Z,28.70
2022-08-27T14:00:16.950Z,29.20
2022-08-27T14:05:25.263Z,29.42
2022-08-27T14:10:58.812Z,29.40
2022-08-27T14:16:31.519Z,28.67
2022-08-27T14:21:52.959Z,28.42
2022-08-27T14:27:16.021Z,29.34
2022-08-27T14:32:36.923Z,28.91
2022-08-27T14:37:40.274Z,29.11
2022-08-27T14:42:45.081Z,28.19
2022-08-27T14:48:18.168Z,28.31
2022-08-27T14:53:21.914Z,28.89
2022-08-27T14:58:24.172Z,28.87
2022-08-27T15:03:26.596Z,28.23
2022-08-27T15:08:47.588Z,27.53
2022-08-27T15:14:23.432Z,27.67
2022-08-27T15:19:44.831Z,27.97
2022-08-27T15:25:07.252Z,27.97
2022-08-27T15:30:30.001Z,27.52
2022-08-27T15:35:34.028Z,26.93
2022-08-27T15:40:37.675Z,26.65
2022-08-27T15:45:40.133Z,26.18
2022-08-27T15:50:45.182Z,26.10
2022-08-27T15:55:48.803Z,26.31
2022-08-27T16:01:13.778Z,26.04
2022-08-27T16:06:19.514Z,26.03
2022-08-27T16:11:22.525Z,26.44
2022-08-27T16:16:47.386Z,25.81
2022-08-27T16:21:52.083Z,26.05
2022-08-27T16:26:56.303Z,26.10
2022-08-27T16:32:18.921Z,26.63
2022-08-27T16:37:22.899Z,26.58
2022-08-27T16:42:49.773Z,26.14
2022-08-27T16:48:11.882Z,25.94
2022-08-27T16:53:39.323Z,25.75
2022-08-27T16:58:47.201Z,25.53
2022-08-27T17:04:19.401Z,25.01
2022-08-27T17:09:35.636Z,25.12
2022-08-27T17:14:59.664Z,24.93
2022-08-27T17:20:27.152Z,24.97
2022-08-27T17:25:42.513Z,25.17
2022-08-27T17:30:53.837Z,25.21
2022-08-27T17:36:06.084Z,25.01
2022-08-27T17:41:24.592Z,24.50
2022-08-27T17:46:50.123Z,24.60
2022-08-27T17:52:01.324Z,24.43
2022-08-27T17:57:40.363Z,24.45
2022-08-27T18:02:49.997Z,24.61
2022-08-27T18:08:16.932Z,24.57
2022-08-27T18:13:29.724Z,24.49
2022-08-27T18:18:41.307Z,24.28
2022-08-27T18:23:50.604Z,24.03
2022-08-27T18:29:17.570Z,24.04
2022-08-27T18:34:46.812Z,24.28
2022-08-27T18:39:59.077Z,23.85
2022-08-27T18:45:28.559Z,23.80
2022-08-27T18:50:53.723Z,23.70
2022-08-27T18:56:01.812Z,23.32
2022-08-27T19:01:14.504Z,23.05
2022-08-27T19:06:20.537Z,22.79
2022-08-27T19:11:27.624Z,23.15
2022-08-27T19:16:46.787Z,23.26
2022-08-27T19:22:13.150Z,23.24
2022-08-27T19:27:24.826Z,22.94
2022-08-27T19:32:32.903Z,22.54
2022-08-27T19:37:58.463Z,22.49
2022-08-27T19:43:08.453Z,22.51
2022-08-27T19:48:18.210Z,22.47
2022-08-27T19:53:26.765Z,22.29
2022-08-27T19:58:44.613Z,21.99
2022-08-27T20:04:02.742Z,22.01
2022-08-27T20:09:10.911Z,22.01
2022-08-27T20:14:16.206Z,21.65
2022-08-27T20:19:29.422Z,21.66
2022-08-27T20:24:35.751Z,21.41
2022-08-27T20:30:27.545Z,21.44
2022-08-27T20:35:39.891Z,21.43
2022-08-27T20:40:52.291Z,21.42
2022-08-27T20:46:02.100Z,21.41
2022-08-27T20:51:29.103Z,21.49
2022-08-27T20:56:40.203Z,21.37
2022-08-27T21:02:16.377Z,21.29
2022-08-27T21:07:26.682Z,21.25
2022-08-27T21:12:34.123Z,21.27
2022-08-27T21:17:44.510Z,21.31
2022-08-27T21:22:49.722Z,21.38
2022-08-27T21:27:59.063Z,21.43
2022-08-27T21:33:23.141Z,21.33
2022-08-27T21:38:31.164Z,21.11
2022-08-27T21:43:55.590Z,21.10
2022-08-27T21:49:01.524Z,20.97
2022-08-27T21:54:27.367Z,20.85
2022-08-27T21:59:50.823Z,21.12
2022-08-27T22:05:11.643Z,21.15
2022-08-27T22:10:14.422Z,20.88
2022-08-27T22:15:17.642Z,20.89
2022-08-27T22:20:20.823Z,20.81
2022-08-27T22:25:43.901Z,20.88
2022-08-27T22:30:47.426Z,20.99
2022-08-27T22:35:51.064Z,20.98
2022-08-27T22:40:56.632Z,20.96
2022-08-27T22:46:00.961Z,20.87
2022-08-27T22:51:07.642Z,20.95
2022-08-27T22:56:17.722Z,20.67
2022-08-27T23:01:23.102Z,20.74
2022-08-27T23:06:28.341Z,20.72
2022-08-27T23:11:34.884Z,20.76
2022-08-27T23:16:40.477Z,20.53
2022-08-27T23:21:45.306Z,20.46
2022-08-27T23:26:49.875Z,20.29
2022-08-27T23:31:53.443Z,20.21
2022-08-27T23:36:59.004Z,20.24
2022-08-27T23:42:26.770Z,20.27
2022-08-27T23:47:50.409Z,20.19
2022-08-27T23:52:57.302Z,20.21
2022-08-27T23:58:04.675Z,20.07
